Time;durP1;ratioP1;P1;durP2;ratioP2;P2;SDS_P1;SDS_P2;PMS_P1;PMS_P2;Temp;Humidity;BMP_temperature;BMP_pressure;BME280_temperature;BME280_humidity;BME280_pressure;Samples;Min_cycle;Max_cycle;Signal;HPM_P1;HPM_P2
2023/09/17 00:00:41;;;;;;;4.47;0.98;;;;;;;15.39;76.72;101510.91;5028834;28;20037;-81
2023/09/17 00:03:08;;;;;;;6.13;0.95;;;;;;;15.50;76.67;101533.41;5023007;28;20054;-84
2023/09/17 00:05:35;;;;;;;5.25;0.60;;;;;;;15.49;76.88;101529.06;5018236;28;20054;-75
2023/09/17 00:08:03;;;;;;;4.10;0.70;;;;;;;15.48;76.65;101529.97;5023406;28;20047;-75
2023/09/17 00:10:32;;;;;;;3.20;0.70;;;;;;;15.44;76.94;101515.16;5019882;28;20054;-79
2023/09/17 00:12:59;;;;;;;4.57;0.80;;;;;;;15.46;76.90;101521.25;5025559;28;20092;-77
2023/09/17 00:15:26;;;;;;;6.13;1.17;;;;;;;15.45;77.29;101519.53;5022523;28;20057;-73
2023/09/17 00:17:53;;;;;;;4.10;0.98;;;;;;;15.43;77.00;101516.06;5022886;28;20056;-74
2023/09/17 00:20:20;;;;;;;6.63;0.88;;;;;;;15.43;77.02;101523.09;5017987;28;20045;-73
2023/09/17 00:22:47;;;;;;;3.88;0.52;;;;;;;15.41;77.14;101525.78;5019233;28;20045;-73
2023/09/17 00:25:14;;;;;;;2.55;0.75;;;;;;;15.42;77.38;101532.75;5025444;28;20509;-73
2023/09/17 00:27:42;;;;;;;5.03;0.80;;;;;;;15.40;77.10;101524.06;5018397;28;20053;-73
2023/09/17 00:30:11;;;;;;;3.92;0.80;;;;;;;15.40;76.93;101529.31;5018383;28;20046;-73
2023/09/17 00:32:37;;;;;;;4.68;1.20;;;;;;;15.40;76.88;101529.31;5017459;28;20046;-73
2023/09/17 00:35:05;;;;;;;2.40;0.70;;;;;;;15.25;77.02;101506.00;5027952;28;20045;-78
2023/09/17 00:37:32;;;;;;;3.33;0.47;;;;;;;15.38;76.71;101531.13;5030621;28;20045;-80
2023/09/17 00:39:59;;;;;;;4.72;0.70;;;;;;;15.38;76.85;101532.88;5028323;28;20042;-81
2023/09/17 00:42:26;;;;;;;3.38;1.00;;;;;;;15.37;76.78;101539.94;5028565;28;20047;-80
2023/09/17 00:44:54;;;;;;;4.47;0.52;;;;;;;15.29;76.60;101521.69;5026404;28;20049;-81
2023/09/17 00:47:21;;;;;;;6.13;0.80;;;;;;;15.34;76.35;101524.22;5031777;28;20049;-78
2023/09/17 00:49:48;;;;;;;8.50;1.17;;;;;;;15.33;76.46;101527.72;5021578;28;20054;-81
2023/09/17 00:52:18;;;;;;;2.22;0.70;;;;;;;15.32;76.26;101518.13;5029455;28;20514;-81
2023/09/17 00:54:46;;;;;;;2.08;0.60;;;;;;;15.31;76.29;101524.28;5028806;28;20046;-81
2023/09/17 00:57:15;;;;;;;4.15;1.05;;;;;;;15.29;76.29;101515.56;5026477;28;20497;-80
2023/09/17 00:59:42;;;;;;;2.17;0.85;;;;;;;15.27;76.45;101506.84;5017683;28;20049;-80
2023/09/17 01:02:12;;;;;;;5.07;1.13;;;;;;;15.26;76.27;101507.75;5025563;28;20048;-81
2023/09/17 01:04:43;;;;;;;3.28;0.70;;;;;;;15.24;76.25;101506.94;5028860;28;20438;-79
2023/09/17 01:07:10;;;;;;;3.30;1.00;;;;;;;15.22;76.29;101511.34;5030518;28;20045;-79
2023/09/17 01:09:38;;;;;;;2.28;0.68;;;;;;;15.21;76.31;101507.00;5026448;28;20056;-80
2023/09/17 01:12:07;;;;;;;3.10;0.70;;;;;;;15.13;76.31;101493.19;5031363;28;20047;-81
2023/09/17 01:14:34;;;;;;;3.15;0.90;;;;;;;15.17;76.35;101506.22;5027433;28;20057;-82
2023/09/17 01:17:03;;;;;;;6.82;0.98;;;;;;;15.15;76.53;101513.28;5032117;28;20049;-83
2023/09/17 01:19:32;;;;;;;5.20;0.80;;;;;;;15.14;76.28;101511.56;5020771;28;20131;-83
2023/09/17 01:22:06;;;;;;;6.60;0.80;;;;;;;15.13;76.49;101493.19;5028717;28;20037;-83
2023/09/17 01:24:40;;;;;;;4.20;2.38;;;;;;;15.03;76.34;101492.56;5026750;28;20137;-83
2023/09/17 01:27:10;;;;;;;6.78;0.60;;;;;;;15.06;76.41;101489.84;5028325;28;20921;-83
2023/09/17 01:29:40;;;;;;;4.18;0.95;;;;;;;15.09;76.45;101494.19;5026479;28;20049;-82
2023/09/17 01:32:08;;;;;;;2.63;0.57;;;;;;;15.06;76.25;101503.88;5029652;28;20048;-83
2023/09/17 01:34:37;;;;;;;3.90;1.10;;;;;;;15.04;76.28;101497.78;5028965;28;20057;-83
2023/09/17 01:37:09;;;;;;;2.10;0.80;;;;;;;15.04;76.45;101491.66;5023268;28;20038;-84
2023/09/17 01:39:41;;;;;;;5.35;0.93;;;;;;;15.02;76.40;101493.44;5022393;28;20049;-82
2023/09/17 01:42:10;;;;;;;3.50;0.93;;;;;;;15.00;75.71;101490.88;5025511;28;20053;-83
2023/09/17 01:44:39;;;;;;;4.00;0.85;;;;;;;14.96;76.35;101486.56;5026347;28;20748;-83
2023/09/17 01:47:07;;;;;;;1.95;0.52;;;;;;;14.97;76.24;101487.44;5023585;28;20053;-83
2023/09/17 01:49:34;;;;;;;2.38;0.65;;;;;;;14.95;76.19;101484.84;5023788;28;20046;-83
2023/09/17 01:52:04;;;;;;;3.47;0.60;;;;;;;14.94;76.11;101488.41;5028617;28;20064;-81
2023/09/17 01:54:31;;;;;;;4.07;0.70;;;;;;;14.92;76.08;101484.94;5025133;28;20055;-83
2023/09/17 01:56:58;;;;;;;4.57;1.40;;;;;;;14.90;76.07;101489.38;5028323;28;20046;-84
2023/09/17 01:59:26;;;;;;;3.97;0.82;;;;;;;14.88;76.09;101483.28;5029723;28;20045;-83
2023/09/17 02:01:53;;;;;;;1.90;0.70;;;;;;;14.88;76.08;101482.41;5031188;28;20379;-83
2023/09/17 02:04:20;;;;;;;1.45;0.70;;;;;;;14.70;75.69;101463.56;5031961;28;20057;-84
2023/09/17 02:06:47;;;;;;;4.05;0.70;;;;;;;14.82;75.89;101480.78;5026858;28;20045;-83
2023/09/17 02:09:14;;;;;;;1.80;0.63;;;;;;;14.81;75.87;101482.56;5025303;28;20180;-84
2023/09/17 02:11:41;;;;;;;2.78;0.70;;;;;;;14.79;75.89;101489.63;5025513;28;20041;-83
2023/09/17 02:14:08;;;;;;;3.28;0.70;;;;;;;14.78;75.76;101481.78;5024828;28;20387;-83
2023/09/17 02:16:37;;;;;;;4.78;0.52;;;;;;;14.76;75.77;101483.59;5026587;28;20052;-83
2023/09/17 02:19:04;;;;;;;2.25;0.70;;;;;;;14.73;75.74;101481.88;5026679;28;20046;-83
2023/09/17 02:21:31;;;;;;;1.20;0.55;;;;;;;14.71;75.71;101485.44;5021128;28;20084;-83
2023/09/17 02:23:58;;;;;;;2.33;0.68;;;;;;;14.69;75.86;101482.03;5026086;28;20100;-80
2023/09/17 02:26:25;;;;;;;2.10;0.88;;;;;;;14.68;75.92;101485.53;5030926;28;20048;-80
2023/09/17 02:28:52;;;;;;;3.63;0.80;;;;;;;14.65;75.84;101480.34;5030742;28;20061;-80
2023/09/17 02:31:20;;;;;;;3.75;1.98;;;;;;;14.65;75.93;101482.97;5023011;28;20053;-80
2023/09/17 02:33:48;;;;;;;1.90;0.60;;;;;;;14.63;76.07;101483.03;5020427;28;20839;-80
2023/09/17 02:36:15;;;;;;;6.80;0.85;;;;;;;14.58;75.83;101469.97;5015915;28;20050;-80
2023/09/17 02:38:42;;;;;;;2.25;0.60;;;;;;;14.60;75.95;101468.19;5023375;28;20050;-82
2023/09/17 02:41:09;;;;;;;1.70;0.70;;;;;;;14.56;75.95;101476.16;5027808;28;20045;-80
2023/09/17 02:43:37;;;;;;;1.92;0.70;;;;;;;14.58;76.01;101484.91;5029774;28;20055;-80
2023/09/17 02:46:04;;;;;;;5.63;0.80;;;;;;;14.56;75.92;101481.44;5028797;28;20045;-80
2023/09/17 02:48:32;;;;;;;3.00;0.70;;;;;;;14.51;75.96;101478.88;5028794;28;20453;-80
2023/09/17 02:51:00;;;;;;;3.00;1.05;;;;;;;14.53;76.00;101482.38;5028601;28;20096;-80
2023/09/17 02:53:27;;;;;;;5.93;1.08;;;;;;;14.53;76.25;101481.50;5018827;28;20054;-80
2023/09/17 02:55:55;;;;;;;3.22;0.65;;;;;;;14.52;76.23;101479.78;5029116;28;20119;-81
2023/09/17 02:58:23;;;;;;;3.67;0.50;;;;;;;14.48;76.16;101476.31;5027739;28;20045;-80
2023/09/17 03:00:50;;;;;;;5.40;0.73;;;;;;;14.48;76.42;101472.81;5020945;28;20060;-79
2023/09/17 03:03:17;;;;;;;1.73;0.70;;;;;;;14.49;76.43;101479.84;5025232;28;20057;-80
2023/09/17 03:05:47;;;;;;;1.52;0.70;;;;;;;14.48;76.46;101484.19;5029057;28;20049;-81
2023/09/17 03:08:15;;;;;;;2.05;0.60;;;;;;;14.48;76.51;101480.72;5025493;28;20469;-80
2023/09/17 03:10:42;;;;;;;1.73;0.90;;;;;;;14.46;76.69;101480.75;5017124;28;20049;-80
2023/09/17 03:13:11;;;;;;;3.20;0.70;;;;;;;14.45;76.73;101481.66;5025793;28;20069;-80
2023/09/17 03:15:38;;;;;;;3.13;0.45;;;;;;;14.45;76.77;101489.53;5013223;28;20046;-81
2023/09/17 03:18:05;;;;;;;3.53;0.90;;;;;;;14.45;76.74;101484.28;5030539;28;20041;-81
2023/09/17 03:20:34;;;;;;;0.90;0.70;;;;;;;14.44;76.91;101482.56;5025404;28;20050;-81
2023/09/17 03:23:04;;;;;;;3.25;0.85;;;;;;;14.44;76.81;101476.44;5025542;28;20049;-80
2023/09/17 03:25:33;;;;;;;2.63;0.80;;;;;;;14.44;76.91;101486.94;5025831;28;20442;-80
2023/09/17 03:28:00;;;;;;;3.28;1.02;;;;;;;14.41;77.04;101485.25;5027126;28;20045;-80
2023/09/17 03:30:27;;;;;;;3.03;0.88;;;;;;;14.40;77.30;101480.91;5028200;28;20049;-81
2023/09/17 03:32:54;;;;;;;5.20;0.60;;;;;;;14.43;77.21;101491.34;5025787;28;20045;-80
2023/09/17 03:35:21;;;;;;;5.15;0.70;;;;;;;14.44;77.25;101490.44;5020166;28;20513;-75
2023/09/17 03:37:48;;;;;;;2.55;0.60;;;;;;;14.44;77.42;101495.69;5017970;28;20053;-74
2023/09/17 03:40:15;;;;;;;1.90;0.70;;;;;;;14.44;77.41;101492.22;5015287;28;20048;-75
2023/09/17 03:42:46;;;;;;;1.50;0.52;;;;;;;14.43;77.30;101496.59;5013263;28;20052;-72
2023/09/17 03:45:14;;;;;;;3.92;0.60;;;;;;;14.43;77.36;101499.25;5016449;28;20059;-74
2023/09/17 03:47:42;;;;;;;3.50;0.60;;;;;;;14.44;77.58;101514.09;5016523;28;20056;-74
2023/09/17 03:50:10;;;;;;;3.00;0.77;;;;;;;14.45;77.48;101518.44;5017530;28;20041;-74
2023/09/17 03:52:38;;;;;;;1.95;0.45;;;;;;;14.45;77.61;101514.97;5019951;28;20045;-74
2023/09/17 03:55:07;;;;;;;3.40;0.88;;;;;;;14.38;77.91;101504.59;5016016;28;20046;-73
2023/09/17 03:57:35;;;;;;;2.30;0.60;;;;;;;14.38;77.60;101515.09;5020145;28;20049;-74
2023/09/17 04:00:07;;;;;;;1.20;0.65;;;;;;;14.43;77.79;101522.91;5018664;28;20062;-74
2023/09/17 04:02:35;;;;;;;2.47;0.95;;;;;;;14.46;77.84;101522.81;5016100;28;20049;-74
2023/09/17 04:05:02;;;;;;;1.10;0.60;;;;;;;14.46;77.77;101528.09;5023208;28;20049;-80
2023/09/17 04:07:34;;;;;;;2.20;0.70;;;;;;;14.46;77.87;101532.44;5025895;28;20531;-79
2023/09/17 04:10:02;;;;;;;1.98;0.63;;;;;;;14.46;78.04;101530.72;5028571;28;20057;-80
2023/09/17 04:12:29;;;;;;;3.92;0.68;;;;;;;14.48;78.12;101541.16;5016779;28;20152;-80
2023/09/17 04:14:57;;;;;;;2.08;0.73;;;;;;;14.45;78.29;101533.34;5027722;28;20053;-79
2023/09/17 04:17:25;;;;;;;1.35;0.93;;;;;;;14.47;78.40;101529.81;5023237;28;20049;-79
2023/09/17 04:19:52;;;;;;;1.77;0.70;;;;;;;14.48;78.44;101539.41;5028183;28;20526;-79
2023/09/17 04:22:19;;;;;;;1.80;0.68;;;;;;;14.51;78.45;101549.84;5019775;28;20056;-80
2023/09/17 04:24:46;;;;;;;1.63;0.80;;;;;;;14.52;78.60;101554.25;5022590;28;20053;-79
2023/09/17 04:27:15;;;;;;;1.65;1.00;;;;;;;14.52;78.69;101554.25;5021583;28;20050;-79
2023/09/17 04:29:41;;;;;;;0.98;0.70;;;;;;;14.54;78.86;101563.00;5030596;28;20787;-80
2023/09/17 04:32:08;;;;;;;3.50;1.00;;;;;;;14.55;78.95;101562.06;5020972;28;20071;-79
2023/09/17 04:34:37;;;;;;;2.50;0.98;;;;;;;14.57;78.80;101562.91;5026824;28;20042;-79
2023/09/17 04:37:04;;;;;;;1.35;0.98;;;;;;;14.57;79.06;101568.19;5024089;28;20060;-79
2023/09/17 04:39:31;;;;;;;1.40;1.08;;;;;;;14.59;79.03;101578.63;5021516;28;20133;-79
2023/09/17 04:41:58;;;;;;;2.10;1.05;;;;;;;14.61;78.90;101580.34;5020505;28;20049;-79
2023/09/17 04:44:25;;;;;;;3.15;1.00;;;;;;;14.62;79.02;101582.06;5021758;28;20042;-80
2023/09/17 04:46:51;;;;;;;3.55;0.80;;;;;;;14.65;78.92;101596.03;5028107;28;20422;-80
2023/09/17 04:49:19;;;;;;;0.90;0.50;;;;;;;14.65;78.81;101604.78;5029670;28;20097;-80
2023/09/17 04:51:47;;;;;;;1.67;0.40;;;;;;;14.67;78.66;101610.03;5029673;28;20045;-80
2023/09/17 04:54:14;;;;;;;1.27;0.35;;;;;;;14.68;78.38;101622.28;5021910;28;20491;-80
2023/09/17 04:56:41;;;;;;;0.20;0.13;;;;;;;14.68;78.04;101625.75;5028322;28;20498;-80
2023/09/17 04:59:08;;;;;;;0.10;0.10;;;;;;;14.68;77.54;101635.41;5032224;28;20049;-80
2023/09/17 05:01:35;;;;;;;0.47;0.00;;;;;;;14.65;77.32;101648.63;5030306;28;20041;-80
2023/09/17 05:04:03;;;;;;;0.68;0.10;;;;;;;14.66;77.23;101660.88;5033036;28;20054;-80
2023/09/17 05:06:29;;;;;;;0.10;0.00;;;;;;;14.64;77.10;101658.28;5032371;28;21137;-80
2023/09/17 05:08:58;;;;;;;0.20;0.00;;;;;;;14.61;76.52;101664.47;5030445;28;20037;-80
2023/09/17 05:11:25;;;;;;;1.67;0.00;;;;;;;14.60;76.00;101673.28;5031553;28;20041;-81
2023/09/17 05:13:51;;;;;;;0.10;0.00;;;;;;;14.59;76.01;101682.03;5029679;28;20426;-84
2023/09/17 05:16:18;;;;;;;0.15;0.00;;;;;;;14.50;75.91;101671.69;5030049;28;20383;-83
2023/09/17 05:18:46;;;;;;;0.80;0.00;;;;;;;14.54;75.73;101688.28;5028509;28;20046;-83
2023/09/17 05:21:12;;;;;;;0.00;0.00;;;;;;;14.48;75.49;101697.13;5028401;28;20107;-83
2023/09/17 05:23:39;;;;;;;1.17;0.00;;;;;;;14.46;75.42;101695.44;5031585;28;20068;-83
2023/09/17 05:26:08;;;;;;;0.10;0.00;;;;;;;14.46;75.07;101706.84;5030052;28;20045;-82
2023/09/17 05:28:35;;;;;;;0.00;0.00;;;;;;;14.42;75.14;101705.16;5030376;28;20397;-83
2023/09/17 05:31:03;;;;;;;0.00;0.00;;;;;;;14.43;74.93;101725.31;5028327;28;20053;-83
2023/09/17 05:33:30;;;;;;;0.45;0.00;;;;;;;14.43;74.79;101733.19;5025664;28;20123;-82
2023/09/17 05:35:57;;;;;;;0.10;0.00;;;;;;;14.41;74.72;101740.22;5030722;28;20052;-83
2023/09/17 05:38:24;;;;;;;0.03;0.00;;;;;;;14.38;74.64;101729.78;5031106;28;20543;-83
2023/09/17 05:40:51;;;;;;;1.23;0.00;;;;;;;14.38;74.78;101742.91;5026531;28;20049;-83
2023/09/17 05:43:19;;;;;;;0.00;0.00;;;;;;;14.38;74.80;101750.81;5025619;28;20482;-81
2023/09/17 05:45:47;;;;;;;0.43;0.00;;;;;;;14.35;74.38;101743.84;5026623;28;20038;-81
2023/09/17 05:48:13;;;;;;;0.10;0.00;;;;;;;14.34;74.32;101749.09;5026266;28;20057;-81
2023/09/17 05:50:40;;;;;;;1.65;0.00;;;;;;;14.30;74.45;101752.69;5029470;28;20053;-80
2023/09/17 05:53:07;;;;;;;0.00;0.00;;;;;;;14.30;74.25;101763.22;5024705;28;20048;-82
2023/09/17 05:55:34;;;;;;;1.45;0.00;;;;;;;14.28;74.26;101762.38;5027664;28;20668;-78
2023/09/17 05:58:02;;;;;;;0.00;0.00;;;;;;;14.23;74.20;101762.47;5021552;28;20042;-77
2023/09/17 06:00:30;;;;;;;0.00;0.00;;;;;;;14.21;74.22;101768.66;5023755;28;20037;-78
2023/09/17 06:02:57;;;;;;;0.00;0.00;;;;;;;14.18;74.39;101770.41;5025274;28;20045;-77
2023/09/17 06:05:24;;;;;;;0.10;0.00;;;;;;;14.17;74.44;101773.97;5022572;28;20052;-77
2023/09/17 06:07:51;;;;;;;0.88;0.00;;;;;;;14.15;74.36;101782.75;5024466;28;20053;-77
2023/09/17 06:10:18;;;;;;;0.03;0.00;;;;;;;14.12;74.23;101778.41;5021286;28;20119;-77
2023/09/17 06:12:45;;;;;;;0.20;0.00;;;;;;;14.11;74.23;101789.81;5024125;28;20038;-77
2023/09/17 06:15:12;;;;;;;0.00;0.00;;;;;;;14.09;73.98;101786.34;5022082;28;20046;-78
2023/09/17 06:17:41;;;;;;;0.00;0.00;;;;;;;14.08;73.98;101789.00;5018117;28;20073;-79
2023/09/17 06:20:09;;;;;;;0.00;0.00;;;;;;;14.05;73.83;101795.16;5027292;28;20053;-80
2023/09/17 06:22:36;;;;;;;0.35;0.00;;;;;;;14.02;73.74;101800.47;5026171;28;20049;-77
2023/09/17 06:25:03;;;;;;;0.10;0.00;;;;;;;13.99;73.53;101805.78;5026635;28;20053;-83
2023/09/17 06:27:31;;;;;;;1.27;0.00;;;;;;;13.97;73.36;101804.94;5030929;28;20399;-83
2023/09/17 06:29:59;;;;;;;0.00;0.00;;;;;;;13.95;73.30;101817.25;5014098;28;20609;-82
2023/09/17 06:32:26;;;;;;;0.80;0.00;;;;;;;13.93;73.42;101819.00;5024924;28;20498;-83
2023/09/17 06:34:54;;;;;;;0.45;0.00;;;;;;;13.85;72.88;101802.50;5027416;28;20117;-84
2023/09/17 06:37:21;;;;;;;0.00;0.00;;;;;;;13.90;73.02;101825.19;5029721;28;20406;-84
2023/09/17 06:39:48;;;;;;;0.00;0.00;;;;;;;13.87;72.65;101821.75;5028175;28;20053;-83
2023/09/17 06:42:15;;;;;;;0.30;0.00;;;;;;;13.85;72.71;101829.63;5031382;28;20044;-83
2023/09/17 06:44:42;;;;;;;0.10;0.00;;;;;;;13.86;72.44;101825.25;5022877;28;20052;-83
2023/09/17 06:47:09;;;;;;;0.00;0.00;;;;;;;13.83;72.58;101826.19;5027666;28;20502;-83
2023/09/17 06:49:36;;;;;;;0.40;0.00;;;;;;;13.83;72.50;101825.28;5032466;28;20052;-82
2023/09/17 06:52:04;;;;;;;3.40;0.22;;;;;;;13.82;72.55;101832.31;5029425;28;20037;-83
2023/09/17 06:54:32;;;;;;;0.00;0.00;;;;;;;13.81;72.79;101833.22;5029540;28;20049;-82
2023/09/17 06:56:58;;;;;;;0.08;0.00;;;;;;;13.82;72.64;101841.94;5029081;28;20175;-84
2023/09/17 06:59:25;;;;;;;0.10;0.00;;;;;;;13.82;72.11;101849.81;5030158;28;20056;-83
2023/09/17 07:01:53;;;;;;;0.43;0.00;;;;;;;13.82;72.22;101853.31;5024127;28;20486;-83
2023/09/17 07:04:20;;;;;;;0.00;0.00;;;;;;;13.80;72.35;101856.84;5022388;28;20105;-76
2023/09/17 07:06:47;;;;;;;0.00;0.00;;;;;;;13.77;71.85;101857.75;5023029;28;20053;-77
2023/09/17 07:09:15;;;;;;;0.38;0.00;;;;;;;13.81;71.48;101856.84;5021793;28;20049;-77
2023/09/17 07:11:42;;;;;;;0.00;0.00;;;;;;;13.83;71.88;101867.31;5022428;28;20100;-76
2023/09/17 07:14:10;;;;;;;0.10;0.00;;;;;;;13.82;71.61;101868.22;5021310;28;20052;-77
2023/09/17 07:16:37;;;;;;;0.10;0.00;;;;;;;13.82;71.61;101871.69;5023079;28;20053;-77
2023/09/17 07:19:05;;;;;;;0.00;0.00;;;;;;;13.83;71.17;101883.97;5023448;28;20479;-78
2023/09/17 07:21:32;;;;;;;0.47;0.00;;;;;;;13.82;71.39;101879.56;5027013;28;20049;-77
2023/09/17 07:23:59;;;;;;;0.10;0.00;;;;;;;13.78;71.38;101879.66;5018582;28;20096;-78
2023/09/17 07:26:27;;;;;;;1.40;0.00;;;;;;;13.85;71.61;101897.91;5023455;28;20049;-78
2023/09/17 07:28:54;;;;;;;1.95;0.13;;;;;;;13.85;71.38;101897.06;5023206;28;20041;-77
2023/09/17 07:31:21;;;;;;;1.10;0.10;;;;;;;13.86;71.39;101898.78;5023698;28;20056;-77
2023/09/17 07:33:48;;;;;;;0.77;0.00;;;;;;;13.88;71.21;101910.13;5023995;28;20052;-76
2023/09/17 07:36:16;;;;;;;0.63;0.00;;;;;;;13.89;71.14;101911.91;5018327;28;20049;-75
2023/09/17 07:38:43;;;;;;;1.38;0.00;;;;;;;13.87;70.93;101904.03;5014692;28;20509;-75
2023/09/17 07:41:10;;;;;;;3.13;0.10;;;;;;;13.88;70.74;101915.38;5013459;28;20041;-76
2023/09/17 07:43:38;;;;;;;1.15;0.60;;;;;;;13.90;71.26;101916.25;5018834;28;20046;-76
2023/09/17 07:46:06;;;;;;;3.13;0.00;;;;;;;13.92;71.10;101922.34;5014388;28;20056;-76
2023/09/17 07:48:33;;;;;;;1.02;0.00;;;;;;;13.92;70.93;101927.63;5021878;28;20482;-76
2023/09/17 07:51:01;;;;;;;0.10;0.05;;;;;;;13.89;70.83;101930.28;5016205;28;20057;-75
2023/09/17 07:53:28;;;;;;;1.35;0.00;;;;;;;13.94;70.46;101933.69;5020378;28;20041;-76
2023/09/17 07:55:56;;;;;;;0.20;0.00;;;;;;;13.94;70.10;101938.94;5020436;28;20061;-76
2023/09/17 07:58:28;;;;;;;0.15;0.00;;;;;;;13.94;69.90;101942.47;5022723;28;20049;-77
2023/09/17 08:00:57;;;;;;;1.85;0.00;;;;;;;13.95;69.92;101944.19;5022553;28;20103;-76
2023/09/17 08:03:24;;;;;;;0.75;0.00;;;;;;;13.96;69.76;101955.56;5022568;28;20054;-75
2023/09/17 08:05:50;;;;;;;2.28;0.05;;;;;;;13.97;70.04;101957.28;5017254;28;20049;-76
2023/09/17 08:08:17;;;;;;;1.40;0.10;;;;;;;13.98;69.77;101959.03;5020438;28;20049;-76
2023/09/17 08:10:46;;;;;;;6.60;0.00;;;;;;;14.01;69.96;101963.38;5018026;28;20498;-76
2023/09/17 08:13:13;;;;;;;0.10;0.00;;;;;;;14.02;69.14;101965.13;5018689;28;20119;-75
2023/09/17 08:15:40;;;;;;;1.50;0.10;;;;;;;14.04;69.51;101965.97;5027795;28;20552;-80
2023/09/17 08:18:09;;;;;;;0.30;0.00;;;;;;;14.05;68.96;101967.69;5012081;28;20045;-79
2023/09/17 08:20:36;;;;;;;1.85;0.00;;;;;;;14.03;69.32;101953.72;5030472;28;20453;-80
2023/09/17 08:23:03;;;;;;;0.60;0.00;;;;;;;14.07;69.14;101974.69;5027198;28;20699;-81
2023/09/17 08:25:33;;;;;;;0.20;0.00;;;;;;;14.09;69.39;101975.53;5029827;28;20057;-82
2023/09/17 08:28:00;;;;;;;3.78;0.10;;;;;;;14.12;69.14;101979.88;5020384;28;20077;-82
2023/09/17 08:30:27;;;;;;;0.05;0.00;;;;;;;14.14;69.05;101968.47;5030210;28;20037;-80
2023/09/17 08:32:54;;;;;;;4.90;0.15;;;;;;;14.16;69.01;101971.91;5032353;28;20045;-80
2023/09/17 08:35:23;;;;;;;0.00;0.00;;;;;;;14.23;69.46;101974.44;5031390;28;20065;-79
2023/09/17 08:37:50;;;;;;;0.80;0.10;;;;;;;14.25;69.19;101975.31;5027317;28;20053;-81
2023/09/17 08:40:18;;;;;;;0.40;0.10;;;;;;;14.29;69.02;101977.88;5033324;28;20057;-80
2023/09/17 08:42:48;;;;;;;0.30;0.08;;;;;;;14.31;69.26;101980.47;5031976;28;20548;-80
2023/09/17 08:45:31;;;;;;;0.47;0.10;;;;;;;14.34;68.67;101988.31;5024487;28;20076;-73
2023/09/17 08:48:04;;;;;;;1.10;0.10;;;;;;;14.35;68.65;101992.69;5019799;28;20148;-73
2023/09/17 08:50:35;;;;;;;0.63;0.08;;;;;;;14.34;68.62;101998.81;5024009;28;20136;-74
2023/09/17 08:53:06;;;;;;;1.20;0.10;;;;;;;14.38;68.31;101995.28;5023164;28;20045;-74
2023/09/17 08:55:33;;;;;;;0.10;0.08;;;;;;;14.39;67.47;101994.38;5021609;28;20495;-74
2023/09/17 08:58:08;;;;;;;0.03;0.00;;;;;;;14.39;67.34;102004.88;5021568;28;20490;-75
2023/09/17 09:00:39;;;;;;;2.08;0.10;;;;;;;14.42;67.37;102007.47;5021786;28;20057;-74
2023/09/17 09:03:07;;;;;;;2.13;0.03;;;;;;;14.44;67.37;102008.31;5019096;28;20058;-76
2023/09/17 09:05:37;;;;;;;0.30;0.03;;;;;;;14.47;67.55;102010.91;5019346;28;20057;-74
2023/09/17 09:08:05;;;;;;;0.17;0.10;;;;;;;14.51;67.07;102019.59;5013475;28;20044;-74
2023/09/17 09:10:32;;;;;;;1.80;0.10;;;;;;;14.52;66.67;102017.00;5017891;28;20059;-75
2023/09/17 09:12:59;;;;;;;0.88;0.00;;;;;;;14.58;66.52;102023.91;5020000;28;20051;-74
2023/09/17 09:15:27;;;;;;;1.05;0.10;;;;;;;14.59;65.87;102023.88;5018184;28;20112;-74
2023/09/17 09:17:55;;;;;;;0.20;0.00;;;;;;;14.64;65.75;102020.34;5022080;28;20091;-73
2023/09/17 09:20:22;;;;;;;1.95;0.10;;;;;;;14.64;64.73;102025.59;5018396;28;20042;-74
2023/09/17 09:22:54;;;;;;;1.55;0.10;;;;;;;14.66;64.71;102029.94;5022576;28;20125;-74
2023/09/17 09:25:21;;;;;;;1.55;0.00;;;;;;;14.67;65.19;102036.06;5019671;28;20111;-74
2023/09/17 09:27:48;;;;;;;1.08;0.10;;;;;;;14.68;64.93;102037.78;5020576;28;20045;-74
2023/09/17 09:30:15;;;;;;;3.40;0.10;;;;;;;14.71;64.28;102046.50;5021192;28;20049;-74
2023/09/17 09:32:43;;;;;;;0.70;0.03;;;;;;;14.74;63.39;102042.94;5017659;28;20095;-75
2023/09/17 09:35:11;;;;;;;0.57;0.10;;;;;;;14.76;63.65;102030.66;5022717;28;20053;-75
2023/09/17 09:37:38;;;;;;;1.58;0.10;;;;;;;14.78;63.74;102040.25;5017854;28;20057;-74
2023/09/17 09:40:08;;;;;;;2.50;0.57;;;;;;;14.82;63.79;102041.94;5018430;28;20045;-75
2023/09/17 09:42:36;;;;;;;16.60;2.88;;;;;;;14.84;63.07;102052.44;5005567;28;20056;-75
2023/09/17 09:45:04;;;;;;;5.30;0.30;;;;;;;14.85;62.33;102054.16;5014345;28;20042;-75
2023/09/17 09:47:32;;;;;;;2.78;0.10;;;;;;;14.88;62.48;102055.88;5015204;28;20057;-74
2023/09/17 09:50:00;;;;;;;3.75;0.40;;;;;;;14.91;62.58;102050.56;5014138;28;20050;-74
2023/09/17 09:52:28;;;;;;;2.53;0.10;;;;;;;14.85;62.55;102031.34;5020601;28;20052;-74
2023/09/17 09:54:55;;;;;;;1.20;0.00;;;;;;;14.98;62.87;102054.88;5018162;28;20049;-75
2023/09/17 09:57:25;;;;;;;0.60;0.05;;;;;;;15.03;61.23;102056.53;5020819;28;20421;-77
2023/09/17 09:59:53;;;;;;;1.65;0.10;;;;;;;15.07;61.75;102065.22;5022470;28;20045;-76
2023/09/17 10:02:21;;;;;;;3.40;0.10;;;;;;;15.11;62.18;102066.03;5018536;28;20048;-76
2023/09/17 10:04:49;;;;;;;5.10;0.20;;;;;;;15.11;61.88;102063.41;5021821;28;20123;-76
2023/09/17 10:07:16;;;;;;;0.70;0.10;;;;;;;15.16;61.95;102066.84;5018815;28;20064;-76
2023/09/17 10:09:44;;;;;;;0.10;0.10;;;;;;;15.19;61.96;102072.03;5014919;28;20050;-76
2023/09/17 10:12:11;;;;;;;1.05;0.10;;;;;;;15.22;61.56;102067.59;5020019;28;20049;-76
2023/09/17 10:14:39;;;;;;;0.40;0.10;;;;;;;15.26;61.41;102073.69;5017399;28;20124;-74
2023/09/17 10:17:07;;;;;;;0.30;0.10;;;;;;;15.29;61.07;102081.53;5019353;28;20060;-74
2023/09/17 10:19:36;;;;;;;2.22;0.10;;;;;;;15.32;60.35;102078.84;5013268;28;20060;-75
2023/09/17 10:22:07;;;;;;;0.20;0.00;;;;;;;15.35;60.49;102084.06;5020800;28;20045;-75
2023/09/17 10:24:36;;;;;;;0.95;0.30;;;;;;;15.37;60.70;102084.91;5013884;28;20418;-74
2023/09/17 10:27:05;;;;;;;0.65;0.00;;;;;;;15.39;60.01;102082.22;5015134;28;20057;-75
2023/09/17 10:29:33;;;;;;;0.80;0.40;;;;;;;15.42;60.12;102085.66;5018586;28;20076;-78
2023/09/17 10:32:03;;;;;;;0.43;0.00;;;;;;;15.42;60.22;102088.31;5017604;28;20491;-74
2023/09/17 10:34:32;;;;;;;1.95;0.10;;;;;;;15.45;60.26;102092.66;5019138;28;20411;-77
2023/09/17 10:37:02;;;;;;;6.72;0.38;;;;;;;15.45;59.97;102090.03;5017490;28;20453;-77
2023/09/17 10:39:30;;;;;;;0.30;0.00;;;;;;;15.47;60.45;102099.63;5015944;28;20056;-77
2023/09/17 10:41:58;;;;;;;1.00;0.10;;;;;;;15.42;60.20;102096.19;5021204;28;20064;-77
2023/09/17 10:44:28;;;;;;;0.20;0.10;;;;;;;15.48;60.20;102106.66;5022530;28;20695;-78
2023/09/17 10:46:56;;;;;;;0.90;0.20;;;;;;;15.49;59.23;102103.13;5022971;28;20510;-77
2023/09/17 10:49:27;;;;;;;2.22;0.15;;;;;;;15.49;59.51;102103.13;5017755;28;20041;-78
2023/09/17 10:51:55;;;;;;;0.75;0.10;;;;;;;15.49;58.16;102113.66;5019596;28;20048;-77
2023/09/17 10:54:22;;;;;;;1.20;0.10;;;;;;;15.51;58.52;102119.78;5021465;28;20045;-77
2023/09/17 10:56:50;;;;;;;0.50;0.10;;;;;;;15.50;58.66;102115.38;5018638;28;20351;-77
2023/09/17 10:59:18;;;;;;;1.35;0.10;;;;;;;15.53;58.32;102125.84;5026876;28;20048;-76
2023/09/17 11:01:47;;;;;;;0.10;0.10;;;;;;;15.53;58.02;102123.22;5024306;28;20064;-78
2023/09/17 11:04:18;;;;;;;4.00;0.10;;;;;;;15.53;57.85;102128.50;5019437;28;20052;-76
2023/09/17 11:06:48;;;;;;;0.30;0.00;;;;;;;15.56;58.47;102122.31;5017661;28;20045;-75
2023/09/17 11:09:16;;;;;;;0.65;0.00;;;;;;;15.56;58.33;102124.06;5019181;28;20042;-75
2023/09/17 11:11:44;;;;;;;1.48;0.00;;;;;;;15.59;58.11;102126.66;5020282;28;20045;-75
2023/09/17 11:14:13;;;;;;;2.70;0.10;;;;;;;15.60;58.29;102131.91;5016633;28;20045;-75
2023/09/17 11:16:41;;;;;;;2.38;0.10;;;;;;;15.59;57.77;102135.41;5018692;28;20053;-76
2023/09/17 11:19:10;;;;;;;1.25;0.10;;;;;;;15.61;57.26;102143.31;5015207;28;20054;-75
2023/09/17 11:21:39;;;;;;;0.55;0.00;;;;;;;15.56;56.88;102135.47;5017209;28;20165;-75
2023/09/17 11:24:12;;;;;;;9.10;0.30;;;;;;;15.51;56.72;102132.03;5016565;28;20064;-75
2023/09/17 11:26:41;;;;;;;0.40;0.10;;;;;;;15.59;56.96;102151.22;5019061;28;20067;-74